sensor_id;sensor_type;location;lat;lon;timestamp;pressure;altitude;pressure_sealevel;temperature;humidity
74268;BME280;62638;51.362;12.472;2022-09-29T00:01:54;98709.06;;;6.55;100.00
74268;BME280;62638;51.362;12.472;2022-09-29T00:04:19;98705.56;;;6.54;100.00
74268;BME280;62638;51.362;12.472;2022-09-29T00:06:45;98703.88;;;6.53;100.00
74268;BME280;62638;51.362;12.472;2022-09-29T00:09:10;98703.97;;;6.44;100.00
74268;BME280;62638;51.362;12.472;2022-09-29T00:11:35;98708.47;;;6.43;100.00
74268;BME280;62638;51.362;12.472;2022-09-29T00:14:01;98708.19;;;6.28;100.00
74268;BME280;62638;51.362;12.472;2022-09-29T00:16:26;98708.75;;;6.14;100.00
74268;BME280;62638;51.362;12.472;2022-09-29T00:18:54;98705.63;;;6.19;100.00
74268;BME280;62638;51.362;12.472;2022-09-29T00:21:20;98714.13;;;6.22;100.00
74268;BME280;62638;51.362;12.472;2022-09-29T00:23:47;98720.00;;;6.08;100.00
74268;BME280;62638;51.362;12.472;2022-09-29T00:28:45;98719.59;;;5.68;100.00
74268;BME280;62638;51.362;12.472;2022-09-29T00:31:11;98725.75;;;5.41;100.00
74268;BME280;62638;51.362;12.472;2022-09-29T00:33:36;98724.50;;;5.18;100.00
74268;BME280;62638;51.362;12.472;2022-09-29T00:36:10;98723.88;;;4.96;100.00
74268;BME280;62638;51.362;12.472;2022-09-29T00:38:37;98730.66;;;4.81;100.00
74268;BME280;62638;51.362;12.472;2022-09-29T00:41:04;98726.50;;;4.79;100.00
74268;BME280;62638;51.362;12.472;2022-09-29T00:43:56;98736.97;;;4.71;100.00
74268;BME280;62638;51.362;12.472;2022-09-29T00:48:48;98731.78;;;4.79;100.00
74268;BME280;62638;51.362;12.472;2022-09-29T00:51:15;98733.03;;;4.75;100.00
74268;BME280;62638;51.362;12.472;2022-09-29T00:53:41;98731.41;;;4.64;100.00
74268;BME280;62638;51.362;12.472;2022-09-29T00:56:11;98741.06;;;4.55;100.00
74268;BME280;62638;51.362;12.472;2022-09-29T00:58:46;98744.53;;;4.56;100.00
74268;BME280;62638;51.362;12.472;2022-09-29T01:01:20;98738.66;;;4.62;100.00
74268;BME280;62638;51.362;12.472;2022-09-29T01:03:46;98737.69;;;4.53;100.00
74268;BME280;62638;51.362;12.472;2022-09-29T01:06:17;98741.25;;;4.35;100.00
74268;BME280;62638;51.362;12.472;2022-09-29T01:11:17;98743.34;;;4.22;100.00
74268;BME280;62638;51.362;12.472;2022-09-29T01:13:45;98745.28;;;4.29;100.00
74268;BME280;62638;51.362;12.472;2022-09-29T01:16:10;98737.50;;;4.18;100.00
74268;BME280;62638;51.362;12.472;2022-09-29T01:18:36;98752.13;;;4.13;100.00
74268;BME280;62638;51.362;12.472;2022-09-29T01:37:48;98755.47;;;4.34;100.00
74268;BME280;62638;51.362;12.472;2022-09-29T01:40:20;98754.63;;;4.33;100.00
74268;BME280;62638;51.362;12.472;2022-09-29T01:42:54;98759.06;;;4.42;100.00
74268;BME280;62638;51.362;12.472;2022-09-29T01:45:36;98752.53;;;4.27;100.00
74268;BME280;62638;51.362;12.472;2022-09-29T01:48:08;98748.47;;;4.33;100.00
74268;BME280;62638;51.362;12.472;2022-09-29T01:50:41;98751.56;;;4.28;100.00
74268;BME280;62638;51.362;12.472;2022-09-29T01:53:17;98759.66;;;4.27;100.00
74268;BME280;62638;51.362;12.472;2022-09-29T01:55:50;98755.75;;;4.31;100.00
74268;BME280;62638;51.362;12.472;2022-09-29T01:58:22;98753.94;;;4.22;100.00
74268;BME280;62638;51.362;12.472;2022-09-29T02:00:50;98755.06;;;4.09;100.00
74268;BME280;62638;51.362;12.472;2022-09-29T02:06:00;98755.19;;;4.27;100.00
74268;BME280;62638;51.362;12.472;2022-09-29T02:08:48;98748.47;;;4.33;100.00
74268;BME280;62638;51.362;12.472;2022-09-29T02:11:15;98753.22;;;4.48;100.00
74268;BME280;62638;51.362;12.472;2022-09-29T02:13:47;98748.81;;;4.67;100.00
74268;BME280;62638;51.362;12.472;2022-09-29T02:16:16;98746.47;;;4.64;100.00
74268;BME280;62638;51.362;12.472;2022-09-29T02:18:53;98755.38;;;4.82;100.00
74268;BME280;62638;51.362;12.472;2022-09-29T02:21:21;98758.69;;;4.84;100.00
74268;BME280;62638;51.362;12.472;2022-09-29T02:23:47;98749.84;;;4.66;100.00
74268;BME280;62638;51.362;12.472;2022-09-29T02:26:13;98754.19;;;4.57;100.00
74268;BME280;62638;51.362;12.472;2022-09-29T02:28:39;98751.75;;;4.73;100.00
74268;BME280;62638;51.362;12.472;2022-09-29T02:31:05;98751.13;;;4.89;100.00
74268;BME280;62638;51.362;12.472;2022-09-29T02:33:31;98751.44;;;4.86;100.00
74268;BME280;62638;51.362;12.472;2022-09-29T02:36:07;98752.50;;;4.56;100.00
74268;BME280;62638;51.362;12.472;2022-09-29T02:41:32;98764.53;;;4.31;100.00
74268;BME280;62638;51.362;12.472;2022-09-29T02:44:03;98759.91;;;4.52;100.00
74268;BME280;62638;51.362;12.472;2022-09-29T02:52:19;98773.03;;;4.35;100.00
74268;BME280;62638;51.362;12.472;2022-09-29T02:55:05;98770.66;;;4.41;100.00
74268;BME280;62638;51.362;12.472;2022-09-29T02:57:55;98781.41;;;4.30;100.00
74268;BME280;62638;51.362;12.472;2022-09-29T03:00:25;98778.88;;;4.19;100.00
74268;BME280;62638;51.362;12.472;2022-09-29T03:02:51;98776.94;;;4.21;100.00
74268;BME280;62638;51.362;12.472;2022-09-29T03:05:19;98773.31;;;4.13;100.00
74268;BME280;62638;51.362;12.472;2022-09-29T03:07:45;98774.69;;;3.97;100.00
74268;BME280;62638;51.362;12.472;2022-09-29T03:10:13;98773.91;;;3.97;100.00
74268;BME280;62638;51.362;12.472;2022-09-29T03:12:38;98774.97;;;3.75;100.00
74268;BME280;62638;51.362;12.472;2022-09-29T03:15:05;98773.84;;;3.78;100.00
74268;BME280;62638;51.362;12.472;2022-09-29T03:17:31;98776.22;;;3.61;100.00
74268;BME280;62638;51.362;12.472;2022-09-29T03:19:56;98776.34;;;3.60;100.00
74268;BME280;62638;51.362;12.472;2022-09-29T03:22:22;98782.88;;;3.56;100.00
74268;BME280;62638;51.362;12.472;2022-09-29T03:24:48;98782.16;;;3.44;100.00
74268;BME280;62638;51.362;12.472;2022-09-29T03:27:13;98781.81;;;3.28;100.00
74268;BME280;62638;51.362;12.472;2022-09-29T03:29:39;98793.03;;;3.11;100.00
74268;BME280;62638;51.362;12.472;2022-09-29T03:32:04;98783.25;;;3.02;100.00
74268;BME280;62638;51.362;12.472;2022-09-29T03:34:30;98788.34;;;2.94;100.00
74268;BME280;62638;51.362;12.472;2022-09-29T03:36:56;98797.28;;;2.93;100.00
74268;BME280;62638;51.362;12.472;2022-09-29T03:39:22;98794.44;;;2.85;100.00
74268;BME280;62638;51.362;12.472;2022-09-29T03:41:48;98800.59;;;2.95;100.00
74268;BME280;62638;51.362;12.472;2022-09-29T03:44:13;98796.81;;;3.18;100.00
74268;BME280;62638;51.362;12.472;2022-09-29T03:46:39;98789.19;;;3.25;100.00
74268;BME280;62638;51.362;12.472;2022-09-29T03:49:04;98790.75;;;3.37;100.00
74268;BME280;62638;51.362;12.472;2022-09-29T03:51:30;98800.03;;;3.22;100.00
74268;BME280;62638;51.362;12.472;2022-09-29T03:53:55;98799.81;;;3.04;100.00
74268;BME280;62638;51.362;12.472;2022-09-29T03:56:20;98795.72;;;2.90;100.00
74268;BME280;62638;51.362;12.472;2022-09-29T03:58:46;98807.13;;;2.91;100.00
74268;BME280;62638;51.362;12.472;2022-09-29T04:01:11;98811.97;;;2.86;100.00
74268;BME280;62638;51.362;12.472;2022-09-29T04:03:37;98806.69;;;2.86;100.00
74268;BME280;62638;51.362;12.472;2022-09-29T04:06:02;98809.59;;;2.83;100.00
74268;BME280;62638;51.362;12.472;2022-09-29T04:08:28;98813.91;;;2.84;100.00
74268;BME280;62638;51.362;12.472;2022-09-29T04:10:53;98805.38;;;3.01;100.00
74268;BME280;62638;51.362;12.472;2022-09-29T04:13:18;98814.00;;;3.03;100.00
74268;BME280;62638;51.362;12.472;2022-09-29T04:15:47;98816.19;;;2.98;100.00
74268;BME280;62638;51.362;12.472;2022-09-29T04:18:12;98817.03;;;2.89;100.00
74268;BME280;62638;51.362;12.472;2022-09-29T04:20:38;98818.66;;;2.90;100.00
74268;BME280;62638;51.362;12.472;2022-09-29T04:23:03;98829.44;;;2.98;100.00
74268;BME280;62638;51.362;12.472;2022-09-29T04:25:29;98825.31;;;3.05;100.00
74268;BME280;62638;51.362;12.472;2022-09-29T04:27:54;98825.94;;;3.18;100.00
74268;BME280;62638;51.362;12.472;2022-09-29T04:30:19;98823.91;;;3.31;100.00
74268;BME280;62638;51.362;12.472;2022-09-29T04:32:45;98822.94;;;3.32;100.00
74268;BME280;62638;51.362;12.472;2022-09-29T04:35:10;98828.69;;;3.47;100.00
74268;BME280;62638;51.362;12.472;2022-09-29T04:37:35;98825.56;;;3.32;100.00
74268;BME280;62638;51.362;12.472;2022-09-29T04:40:02;98834.03;;;3.26;100.00
74268;BME280;62638;51.362;12.472;2022-09-29T04:42:29;98826.59;;;3.10;100.00
74268;BME280;62638;51.362;12.472;2022-09-29T04:44:54;98833.28;;;3.14;100.00
74268;BME280;62638;51.362;12.472;2022-09-29T04:47:19;98837.19;;;3.10;100.00
74268;BME280;62638;51.362;12.472;2022-09-29T04:49:44;98830.34;;;2.87;100.00
74268;BME280;62638;51.362;12.472;2022-09-29T04:52:11;98830.25;;;2.98;100.00
74268;BME280;62638;51.362;12.472;2022-09-29T04:54:36;98832.53;;;3.03;100.00
74268;BME280;62638;51.362;12.472;2022-09-29T04:57:02;98828.47;;;2.99;100.00
74268;BME280;62638;51.362;12.472;2022-09-29T04:59:27;98836.09;;;2.92;100.00
74268;BME280;62638;51.362;12.472;2022-09-29T05:01:53;98836.75;;;2.85;100.00
74268;BME280;62638;51.362;12.472;2022-09-29T05:04:18;98841.19;;;2.63;100.00
74268;BME280;62638;51.362;12.472;2022-09-29T05:06:44;98836.47;;;2.46;100.00
74268;BME280;62638;51.362;12.472;2022-09-29T05:09:09;98839.38;;;2.43;100.00
74268;BME280;62638;51.362;12.472;2022-09-29T05:11:34;98839.66;;;2.29;100.00
74268;BME280;62638;51.362;12.472;2022-09-29T05:14:00;98844.84;;;2.51;100.00
74268;BME280;62638;51.362;12.472;2022-09-29T05:16:26;98849.53;;;2.59;100.00
74268;BME280;62638;51.362;12.472;2022-09-29T05:18:51;98851.97;;;2.71;100.00
74268;BME280;62638;51.362;12.472;2022-09-29T05:21:17;98849.44;;;2.70;100.00
74268;BME280;62638;51.362;12.472;2022-09-29T05:23:43;98844.09;;;2.60;100.00
74268;BME280;62638;51.362;12.472;2022-09-29T05:26:09;98847.66;;;2.50;100.00
74268;BME280;62638;51.362;12.472;2022-09-29T05:28:37;98848.22;;;2.53;100.00
74268;BME280;62638;51.362;12.472;2022-09-29T05:31:05;98853.34;;;2.55;100.00
74268;BME280;62638;51.362;12.472;2022-09-29T05:33:31;98858.72;;;2.44;100.00
74268;BME280;62638;51.362;12.472;2022-09-29T05:35:56;98859.28;;;2.47;100.00
74268;BME280;62638;51.362;12.472;2022-09-29T05:38:22;98864.72;;;2.46;100.00
74268;BME280;62638;51.362;12.472;2022-09-29T05:40:48;98859.88;;;2.51;100.00
74268;BME280;62638;51.362;12.472;2022-09-29T05:43:14;98859.69;;;2.63;100.00
74268;BME280;62638;51.362;12.472;2022-09-29T05:45:39;98852.81;;;2.93;100.00
74268;BME280;62638;51.362;12.472;2022-09-29T05:48:04;98854.75;;;3.21;100.00
74268;BME280;62638;51.362;12.472;2022-09-29T05:50:29;98857.56;;;3.29;100.00
74268;BME280;62638;51.362;12.472;2022-09-29T05:53:01;98853.72;;;3.43;100.00
74268;BME280;62638;51.362;12.472;2022-09-29T05:55:27;98859.75;;;3.54;100.00
74268;BME280;62638;51.362;12.472;2022-09-29T05:57:52;98853.84;;;3.81;100.00
74268;BME280;62638;51.362;12.472;2022-09-29T06:00:17;98853.38;;;4.16;100.00
74268;BME280;62638;51.362;12.472;2022-09-29T06:02:43;98857.56;;;4.57;100.00
74268;BME280;62638;51.362;12.472;2022-09-29T06:05:08;98851.13;;;4.79;100.00
74268;BME280;62638;51.362;12.472;2022-09-29T06:07:33;98857.22;;;5.08;100.00
74268;BME280;62638;51.362;12.472;2022-09-29T06:09:59;98865.22;;;5.35;100.00
74268;BME280;62638;51.362;12.472;2022-09-29T06:12:24;98861.94;;;5.61;100.00
74268;BME280;62638;51.362;12.472;2022-09-29T06:14:49;98861.25;;;5.86;100.00
74268;BME280;62638;51.362;12.472;2022-09-29T06:17:15;98855.06;;;5.95;100.00
74268;BME280;62638;51.362;12.472;2022-09-29T06:19:40;98855.00;;;6.22;100.00
74268;BME280;62638;51.362;12.472;2022-09-29T06:22:05;98858.13;;;6.53;100.00
74268;BME280;62638;51.362;12.472;2022-09-29T06:24:31;98848.00;;;6.74;100.00
74268;BME280;62638;51.362;12.472;2022-09-29T06:26:56;98846.50;;;6.72;99.43
74268;BME280;62638;51.362;12.472;2022-09-29T06:29:21;98854.94;;;6.85;99.45
74268;BME280;62638;51.362;12.472;2022-09-29T06:31:47;98850.81;;;7.16;99.49
74268;BME280;62638;51.362;12.472;2022-09-29T06:34:12;98850.19;;;7.22;98.19
74268;BME280;62638;51.362;12.472;2022-09-29T06:36:43;98856.69;;;7.54;99.00
74268;BME280;62638;51.362;12.472;2022-09-29T06:39:27;98850.25;;;7.64;98.07
74268;BME280;62638;51.362;12.472;2022-09-29T06:41:52;98848.72;;;7.96;97.83
74268;BME280;62638;51.362;12.472;2022-09-29T06:44:21;98850.25;;;8.06;95.72
74268;BME280;62638;51.362;12.472;2022-09-29T06:46:48;98842.78;;;8.18;95.87
74268;BME280;62638;51.362;12.472;2022-09-29T06:49:16;98844.91;;;8.06;95.05
74268;BME280;62638;51.362;12.472;2022-09-29T06:51:42;98855.03;;;7.95;94.96
74268;BME280;62638;51.362;12.472;2022-09-29T06:54:12;98857.84;;;7.85;95.14
74268;BME280;62638;51.362;12.472;2022-09-29T06:56:37;98858.16;;;7.82;94.71
74268;BME280;62638;51.362;12.472;2022-09-29T06:59:03;98865.00;;;7.85;94.79
74268;BME280;62638;51.362;12.472;2022-09-29T07:01:28;98858.03;;;7.92;94.28
74268;BME280;62638;51.362;12.472;2022-09-29T07:03:53;98851.91;;;8.07;94.64
74268;BME280;62638;51.362;12.472;2022-09-29T07:06:19;98860.13;;;8.22;93.88
74268;BME280;62638;51.362;12.472;2022-09-29T07:08:44;98860.88;;;8.48;94.15
74268;BME280;62638;51.362;12.472;2022-09-29T07:11:10;98862.56;;;8.57;93.45
74268;BME280;62638;51.362;12.472;2022-09-29T07:13:36;98872.22;;;8.58;92.52
74268;BME280;62638;51.362;12.472;2022-09-29T07:16:05;98869.88;;;8.63;92.08
74268;BME280;62638;51.362;12.472;2022-09-29T07:18:33;98876.75;;;8.74;90.93
74268;BME280;62638;51.362;12.472;2022-09-29T07:21:00;98880.91;;;9.09;90.89
74268;BME280;62638;51.362;12.472;2022-09-29T07:23:25;98872.88;;;9.17;91.89
74268;BME280;62638;51.362;12.472;2022-09-29T07:25:51;98872.03;;;9.33;90.63
74268;BME280;62638;51.362;12.472;2022-09-29T07:28:16;98878.06;;;9.19;89.92
74268;BME280;62638;51.362;12.472;2022-09-29T07:30:42;98880.41;;;9.22;89.32
74268;BME280;62638;51.362;12.472;2022-09-29T07:33:07;98874.66;;;9.57;89.66
74268;BME280;62638;51.362;12.472;2022-09-29T07:35:32;98886.84;;;9.51;87.97
74268;BME280;62638;51.362;12.472;2022-09-29T07:37:58;98882.19;;;9.45;87.26
74268;BME280;62638;51.362;12.472;2022-09-29T07:40:23;98881.31;;;9.69;88.55
74268;BME280;62638;51.362;12.472;2022-09-29T07:42:49;98889.16;;;10.10;87.10
74268;BME280;62638;51.362;12.472;2022-09-29T07:45:18;98894.53;;;10.18;85.88
74268;BME280;62638;51.362;12.472;2022-09-29T07:47:43;98897.47;;;10.23;85.00
74268;BME280;62638;51.362;12.472;2022-09-29T07:50:09;98900.19;;;10.07;85.42
74268;BME280;62638;51.362;12.472;2022-09-29T07:52:34;98889.00;;;10.73;86.70
74268;BME280;62638;51.362;12.472;2022-09-29T07:55:00;98900.16;;;10.54;84.11
74268;BME280;62638;51.362;12.472;2022-09-29T07:57:25;98905.03;;;10.50;82.55
74268;BME280;62638;51.362;12.472;2022-09-29T07:59:51;98904.47;;;10.85;83.45
74268;BME280;62638;51.362;12.472;2022-09-29T08:02:18;98910.44;;;10.96;81.65
74268;BME280;62638;51.362;12.472;2022-09-29T08:04:44;98909.63;;;11.10;81.89
74268;BME280;62638;51.362;12.472;2022-09-29T08:07:09;98906.91;;;10.95;81.18
74268;BME280;62638;51.362;12.472;2022-09-29T08:09:34;98915.72;;;11.04;81.00
74268;BME280;62638;51.362;12.472;2022-09-29T08:12:00;98918.53;;;11.62;80.38
74268;BME280;62638;51.362;12.472;2022-09-29T08:14:25;98924.03;;;11.83;79.75
74268;BME280;62638;51.362;12.472;2022-09-29T08:16:50;98924.47;;;12.31;78.06
74268;BME280;62638;51.362;12.472;2022-09-29T08:19:16;98933.19;;;11.74;75.94
74268;BME280;62638;51.362;12.472;2022-09-29T08:21:41;98937.09;;;11.49;76.25
74268;BME280;62638;51.362;12.472;2022-09-29T08:24:06;98926.25;;;12.09;80.64
74268;BME280;62638;51.362;12.472;2022-09-29T08:26:34;98944.38;;;11.78;76.31
74268;BME280;62638;51.362;12.472;2022-09-29T08:29:01;98949.84;;;11.85;77.24
74268;BME280;62638;51.362;12.472;2022-09-29T08:31:27;98945.50;;;12.13;76.24
74268;BME280;62638;51.362;12.472;2022-09-29T08:33:55;98946.97;;;12.45;77.13
74268;BME280;62638;51.362;12.472;2022-09-29T08:36:21;98959.09;;;11.97;75.95
74268;BME280;62638;51.362;12.472;2022-09-29T08:38:50;98961.59;;;11.83;75.01
74268;BME280;62638;51.362;12.472;2022-09-29T08:47:03;98968.44;;;12.45;77.44
74268;BME280;62638;51.362;12.472;2022-09-29T08:49:40;98968.91;;;12.19;71.70
74268;BME280;62638;51.362;12.472;2022-09-29T08:52:12;98974.53;;;12.53;71.68
74268;BME280;62638;51.362;12.472;2022-09-29T08:54:40;98968.91;;;12.84;75.29
74268;BME280;62638;51.362;12.472;2022-09-29T08:57:12;98974.16;;;12.92;70.74
74268;BME280;62638;51.362;12.472;2022-09-29T08:59:55;98973.16;;;12.93;71.39
74268;BME280;62638;51.362;12.472;2022-09-29T09:05:21;98980.44;;;13.84;69.73
74268;BME280;62638;51.362;12.472;2022-09-29T09:19:39;98988.25;;;13.79;67.65
74268;BME280;62638;51.362;12.472;2022-09-29T09:22:30;98989.72;;;13.82;66.01
74268;BME280;62638;51.362;12.472;2022-09-29T09:25:06;98993.66;;;12.94;68.61
74268;BME280;62638;51.362;12.472;2022-09-29T09:27:42;98998.16;;;13.30;68.12
74268;BME280;62638;51.362;12.472;2022-09-29T09:30:15;98993.16;;;13.97;68.32
74268;BME280;62638;51.362;12.472;2022-09-29T09:32:49;98994.84;;;14.32;66.37
74268;BME280;62638;51.362;12.472;2022-09-29T09:35:28;98991.00;;;14.14;63.16
74268;BME280;62638;51.362;12.472;2022-09-29T09:37:58;98991.63;;;14.50;63.87
74268;BME280;62638;51.362;12.472;2022-09-29T09:40:31;98990.56;;;14.92;61.06
74268;BME280;62638;51.362;12.472;2022-09-29T09:43:11;98997.78;;;14.37;61.13
74268;BME280;62638;51.362;12.472;2022-09-29T09:45:45;98995.94;;;14.10;60.99
74268;BME280;62638;51.362;12.472;2022-09-29T09:48:21;98993.94;;;14.25;62.48
74268;BME280;62638;51.362;12.472;2022-09-29T09:50:47;98994.81;;;15.40;60.17
74268;BME280;62638;51.362;12.472;2022-09-29T09:53:19;98999.03;;;15.76;58.16
74268;BME280;62638;51.362;12.472;2022-09-29T09:55:57;98999.50;;;14.99;57.21
74268;BME280;62638;51.362;12.472;2022-09-29T09:58:51;98991.50;;;15.45;55.49
74268;BME280;62638;51.362;12.472;2022-09-29T10:01:23;99001.25;;;15.33;55.37
74268;BME280;62638;51.362;12.472;2022-09-29T10:03:49;99001.59;;;14.97;57.93
74268;BME280;62638;51.362;12.472;2022-09-29T10:06:14;99002.28;;;14.30;58.17
74268;BME280;62638;51.362;12.472;2022-09-29T10:08:40;99006.91;;;14.77;59.14
74268;BME280;62638;51.362;12.472;2022-09-29T10:11:24;99003.66;;;15.02;57.70
74268;BME280;62638;51.362;12.472;2022-09-29T10:14:10;99010.03;;;14.40;57.09
74268;BME280;62638;51.362;12.472;2022-09-29T10:16:43;99009.78;;;14.76;57.14
74268;BME280;62638;51.362;12.472;2022-09-29T10:19:10;99007.19;;;14.54;59.17
74268;BME280;62638;51.362;12.472;2022-09-29T10:21:39;99006.94;;;14.84;58.43
74268;BME280;62638;51.362;12.472;2022-09-29T10:26:46;99007.13;;;15.89;55.95
74268;BME280;62638;51.362;12.472;2022-09-29T10:29:21;99006.28;;;16.02;52.79
74268;BME280;62638;51.362;12.472;2022-09-29T10:34:24;99004.41;;;16.22;53.13
74268;BME280;62638;51.362;12.472;2022-09-29T10:36:55;99004.03;;;15.85;55.27
74268;BME280;62638;51.362;12.472;2022-09-29T10:41:57;99013.22;;;15.04;53.83
74268;BME280;62638;51.362;12.472;2022-09-29T10:44:23;99010.41;;;15.38;52.87
74268;BME280;62638;51.362;12.472;2022-09-29T10:46:54;99012.94;;;15.93;53.71
74268;BME280;62638;51.362;12.472;2022-09-29T10:49:22;99005.91;;;15.92;49.09
74268;BME280;62638;51.362;12.472;2022-09-29T10:51:55;99014.75;;;16.51;50.09
74268;BME280;62638;51.362;12.472;2022-09-29T10:54:24;99012.09;;;15.92;49.75
74268;BME280;62638;51.362;12.472;2022-09-29T10:56:50;99010.22;;;16.25;51.25
74268;BME280;62638;51.362;12.472;2022-09-29T10:59:17;99016.47;;;16.13;51.01
74268;BME280;62638;51.362;12.472;2022-09-29T11:02:03;99015.66;;;15.60;53.11
74268;BME280;62638;51.362;12.472;2022-09-29T11:04:31;99019.19;;;14.93;55.38
74268;BME280;62638;51.362;12.472;2022-09-29T11:07:09;99011.72;;;14.95;55.04
74268;BME280;62638;51.362;12.472;2022-09-29T11:09:40;99020.34;;;15.38;55.52
74268;BME280;62638;51.362;12.472;2022-09-29T11:12:27;99020.81;;;16.01;55.00
74268;BME280;62638;51.362;12.472;2022-09-29T11:14:52;99021.50;;;14.96;56.40
74268;BME280;62638;51.362;12.472;2022-09-29T11:17:27;99021.25;;;14.50;57.29
74268;BME280;62638;51.362;12.472;2022-09-29T11:19:56;99022.06;;;14.44;59.03
74268;BME280;62638;51.362;12.472;2022-09-29T11:22:53;99023.03;;;14.02;59.71
74268;BME280;62638;51.362;12.472;2022-09-29T11:25:45;99022.47;;;14.13;61.80
74268;BME280;62638;51.362;12.472;2022-09-29T11:28:39;99021.66;;;13.85;60.60
74268;BME280;62638;51.362;12.472;2022-09-29T11:40:09;99029.19;;;13.96;59.87
74268;BME280;62638;51.362;12.472;2022-09-29T11:45:18;99025.06;;;15.16;57.03
74268;BME280;62638;51.362;12.472;2022-09-29T11:53:10;99027.66;;;15.44;56.67
74268;BME280;62638;51.362;12.472;2022-09-29T11:55:42;99023.19;;;14.63;58.39
74268;BME280;62638;51.362;12.472;2022-09-29T12:03:51;99028.59;;;15.23;57.71
74268;BME280;62638;51.362;12.472;2022-09-29T12:06:54;99027.53;;;15.11;54.61
74268;BME280;62638;51.362;12.472;2022-09-29T12:13:05;99025.06;;;15.16;54.23
74268;BME280;62638;51.362;12.472;2022-09-29T12:17:46;99028.97;;;14.25;57.08
74268;BME280;62638;51.362;12.472;2022-09-29T12:20:21;99033.84;;;14.36;56.45
74268;BME280;62638;51.362;12.472;2022-09-29T12:22:49;99030.56;;;14.41;56.97
74268;BME280;62638;51.362;12.472;2022-09-29T12:25:17;99034.69;;;14.16;59.36
74268;BME280;62638;51.362;12.472;2022-09-29T12:27:45;99036.44;;;14.23;58.14
74268;BME280;62638;51.362;12.472;2022-09-29T12:30:26;99035.25;;;14.04;60.15
74268;BME280;62638;51.362;12.472;2022-09-29T12:33:16;99028.59;;;14.00;59.95
74268;BME280;62638;51.362;12.472;2022-09-29T12:35:58;99037.03;;;14.25;58.41
74268;BME280;62638;51.362;12.472;2022-09-29T12:38:42;99026.63;;;14.43;57.56
74268;BME280;62638;51.362;12.472;2022-09-29T12:41:23;99019.94;;;15.41;55.08
74268;BME280;62638;51.362;12.472;2022-09-29T12:46:46;99021.91;;;16.90;53.40
74268;BME280;62638;51.362;12.472;2022-09-29T12:49:56;99025.50;;;16.77;49.38
74268;BME280;62638;51.362;12.472;2022-09-29T12:52:30;99026.16;;;16.66;52.57
74268;BME280;62638;51.362;12.472;2022-09-29T12:55:01;99026.16;;;16.66;49.17
74268;BME280;62638;51.362;12.472;2022-09-29T12:57:34;99019.34;;;17.08;51.22
74268;BME280;62638;51.362;12.472;2022-09-29T13:00:07;99022.44;;;16.48;51.49
74268;BME280;62638;51.362;12.472;2022-09-29T13:03:06;99025.34;;;15.41;53.38
74268;BME280;62638;51.362;12.472;2022-09-29T13:08:49;99029.06;;;15.33;51.74
74268;BME280;62638;51.362;12.472;2022-09-29T13:11:28;99019.56;;;15.51;51.97
74268;BME280;62638;51.362;12.472;2022-09-29T13:14:02;99024.09;;;16.35;51.52
74268;BME280;62638;51.362;12.472;2022-09-29T13:16:55;99021.28;;;15.78;51.64
74268;BME280;62638;51.362;12.472;2022-09-29T13:19:29;99029.31;;;16.37;50.63
74268;BME280;62638;51.362;12.472;2022-09-29T13:22:24;99026.47;;;15.86;52.75
74268;BME280;62638;51.362;12.472;2022-09-29T13:25:05;99023.75;;;15.79;53.07
74268;BME280;62638;51.362;12.472;2022-09-29T13:27:36;99031.44;;;15.69;54.65
74268;BME280;62638;51.362;12.472;2022-09-29T13:30:26;99026.84;;;16.16;53.39
74268;BME280;62638;51.362;12.472;2022-09-29T13:32:56;99016.91;;;15.57;55.71
74268;BME280;62638;51.362;12.472;2022-09-29T13:35:22;99018.31;;;16.39;52.93
74268;BME280;62638;51.362;12.472;2022-09-29T13:38:10;99022.25;;;16.43;50.77
74268;BME280;62638;51.362;12.472;2022-09-29T13:40:37;99022.34;;;16.81;51.38
74268;BME280;62638;51.362;12.472;2022-09-29T13:43:03;99021.38;;;17.13;50.26
74268;BME280;62638;51.362;12.472;2022-09-29T13:48:00;99029.25;;;17.52;49.45
74268;BME280;62638;51.362;12.472;2022-09-29T13:50:45;99032.09;;;17.33;49.12
74268;BME280;62638;51.362;12.472;2022-09-29T13:56:13;99035.25;;;16.85;51.40
74268;BME280;62638;51.362;12.472;2022-09-29T14:01:08;99028.94;;;17.42;50.80
74268;BME280;62638;51.362;12.472;2022-09-29T14:08:46;99041.28;;;16.74;49.29
74268;BME280;62638;51.362;12.472;2022-09-29T14:13:53;99034.53;;;16.19;52.64
74268;BME280;62638;51.362;12.472;2022-09-29T14:21:59;99037.75;;;16.87;52.72
74268;BME280;62638;51.362;12.472;2022-09-29T14:27:25;99030.00;;;17.35;50.19
74268;BME280;62638;51.362;12.472;2022-09-29T14:30:13;99038.41;;;17.20;48.54
74268;BME280;62638;51.362;12.472;2022-09-29T14:32:55;99035.41;;;17.73;49.49
74268;BME280;62638;51.362;12.472;2022-09-29T14:35:27;99046.00;;;17.43;50.66
74268;BME280;62638;51.362;12.472;2022-09-29T14:37:59;99042.22;;;16.15;51.90
74268;BME280;62638;51.362;12.472;2022-09-29T14:40:26;99048.03;;;15.66;55.67
74268;BME280;62638;51.362;12.472;2022-09-29T14:43:08;99053.56;;;15.38;55.40
74268;BME280;62638;51.362;12.472;2022-09-29T14:46:00;99053.66;;;15.78;53.24
74268;BME280;62638;51.362;12.472;2022-09-29T15:00:20;99069.22;;;16.42;51.91
74268;BME280;62638;51.362;12.472;2022-09-29T15:02:52;99072.28;;;16.85;51.80
74268;BME280;62638;51.362;12.472;2022-09-29T15:05:29;99067.66;;;16.92;51.18
74268;BME280;62638;51.362;12.472;2022-09-29T15:07:55;99069.66;;;15.86;51.80
74268;BME280;62638;51.362;12.472;2022-09-29T15:10:30;99076.06;;;15.52;54.03
74268;BME280;62638;51.362;12.472;2022-09-29T15:15:42;99080.59;;;14.97;58.13
74268;BME280;62638;51.362;12.472;2022-09-29T15:26:31;99083.03;;;14.45;58.60
74268;BME280;62638;51.362;12.472;2022-09-29T15:28:58;99083.47;;;14.27;59.43
74268;BME280;62638;51.362;12.472;2022-09-29T15:31:31;99096.50;;;14.24;60.46